Current Weather

Burlington Muni

Burlington, Wisconsin (KBUU)

Report from: Tuesday, June 18, 2024 6:35 AM CDT
Current time: Tuesday, June 18, 2024 6:55 AM CDT

Nearby weather – Weather history – Daily summaries
Weather forecast

Temperature23.8°C (74.8°F)
Dew point19.4°C (66.9°F)
Winds 7 kts (3.6 m/s, 8.1 mph) South (190°)
Wind gusts 14 kts (7.2 m/s, 16.1 mph)
Visibility10 mi. (16.1 km)
Clouds Sky clear
Altimeter29.94 in.Hg (1014 mB)
Relative humidity76 %
Density altitude1,306 ft. (398 m)
Remarks Fully automated report
Automated weather observing station with precipitation discriminator
Present weather sensor not operating
Flight conditions Visual Meteorological Conditions
Raw dataKBUU 181135Z AUTO 19007G14KT 10SM CLR 24/19 A2994 RMK AO2 T02380194 PWINO
An error has occurred. This application may no longer respond until reloaded. Reload 🗙